Time;durP1;ratioP1;P1;durP2;ratioP2;P2;SDS_P1;SDS_P2;PMS_P1;PMS_P2;Temp;Humidity;BMP_temperature;BMP_pressure;BME280_temperature;BME280_humidity;BME280_pressure;Samples;Min_cycle;Max_cycle;Signal;HPM_P1;HPM_P2
2022/05/14 00:01:08;;;;;;;0.30;0.30;;;;;;;25.92;38.26;101850.97;4986208;28;20037;-51
2022/05/14 00:03:38;;;;;;;0.98;0.30;;;;;;;25.81;38.21;101865.84;4984659;28;21339;-49
2022/05/14 00:06:08;;;;;;;0.20;0.10;;;;;;;25.77;38.07;101857.41;4989165;28;20027;-50
2022/05/14 00:08:35;;;;;;;2.08;0.35;;;;;;;25.55;37.83;101867.91;4976526;28;20026;-50
2022/05/14 00:13:46;;;;;;;0.65;0.20;;;;;;;25.25;38.82;101855.16;4998877;28;20052;-47
2022/05/14 00:16:14;;;;;;;0.43;0.35;;;;;;;25.01;39.56;101854.94;5010191;28;20034;-50
2022/05/14 00:18:41;;;;;;;0.95;0.25;;;;;;;24.91;40.80;101850.28;5009648;28;20182;-47
2022/05/14 00:21:08;;;;;;;0.10;0.10;;;;;;;25.15;39.13;101846.97;5013998;28;20029;-49
2022/05/14 00:23:34;;;;;;;0.20;0.13;;;;;;;25.33;39.23;101846.34;4998164;28;20113;-49
2022/05/14 00:26:00;;;;;;;0.47;0.20;;;;;;;25.27;39.11;101858.44;4996353;28;20561;-48
2022/05/14 00:28:27;;;;;;;0.17;0.15;;;;;;;25.38;38.27;101856.47;4995570;28;20033;-50
2022/05/14 00:30:54;;;;;;;0.10;0.10;;;;;;;25.16;38.96;101849.44;4999664;28;20042;-50
2022/05/14 00:33:20;;;;;;;0.20;0.10;;;;;;;25.08;38.61;101854.66;5010109;28;20026;-50
2022/05/14 00:35:46;;;;;;;0.25;0.10;;;;;;;24.86;38.50;101855.78;4990740;28;20924;-49
2022/05/14 00:38:13;;;;;;;0.13;0.13;;;;;;;24.87;38.70;101860.16;4995061;28;20360;-50
2022/05/14 00:40:43;;;;;;;0.75;0.10;;;;;;;24.52;40.08;101857.47;4996168;28;20030;-48
2022/05/14 00:43:10;;;;;;;2.63;0.20;;;;;;;24.23;40.28;101850.63;4998237;28;20022;-47
2022/05/14 00:45:44;;;;;;;0.52;0.10;;;;;;;24.02;40.45;101850.88;5002858;28;20030;-49
2022/05/14 00:48:12;;;;;;;0.20;0.20;;;;;;;23.67;40.88;101846.97;5000493;28;20069;-50
2022/05/14 00:50:52;;;;;;;0.20;0.10;;;;;;;23.48;41.41;101856.72;4993701;28;20038;-50
2022/05/14 00:53:37;;;;;;;0.60;0.10;;;;;;;23.28;42.09;101849.28;4975694;28;20031;-47
2022/05/14 00:56:07;;;;;;;0.28;0.20;;;;;;;23.10;42.29;101837.72;4986211;28;20454;-49
2022/05/14 00:58:59;;;;;;;1.50;0.98;;;;;;;22.97;42.32;101859.22;4983295;28;20737;-50
2022/05/14 01:01:26;;;;;;;2.53;0.50;;;;;;;22.99;42.37;101849.69;4968775;28;20049;-47
2022/05/14 01:03:52;;;;;;;1.67;1.27;;;;;;;22.78;43.00;101845.97;4992399;28;20053;-47
2022/05/14 01:06:20;;;;;;;2.22;0.55;;;;;;;22.53;44.06;101849.34;4993397;28;20383;-46
2022/05/14 01:08:50;;;;;;;0.73;0.73;;;;;;;22.52;43.81;101863.25;4994520;28;20372;-49
2022/05/14 01:11:19;;;;;;;2.05;0.20;;;;;;;22.22;44.90;101848.28;4992190;28;20026;-47
2022/05/14 01:13:45;;;;;;;0.22;0.22;;;;;;;22.14;45.31;101849.56;4992718;28;20121;-45
2022/05/14 01:16:11;;;;;;;0.52;0.25;;;;;;;22.02;44.89;101843.44;4991003;28;20408;-46
2022/05/14 01:18:38;;;;;;;1.75;0.30;;;;;;;21.88;45.62;101844.94;4993968;28;20112;-48
2022/05/14 01:21:33;;;;;;;0.50;0.28;;;;;;;22.01;45.44;101835.50;4990602;28;20051;-47
2022/05/14 01:27:04;;;;;;;2.45;0.38;;;;;;;21.99;45.36;101834.97;4992112;28;20162;-48
2022/05/14 01:29:30;;;;;;;1.88;0.20;;;;;;;22.04;45.42;101840.44;4979108;28;20022;-48
2022/05/14 01:31:57;;;;;;;0.68;0.25;;;;;;;22.12;45.23;101829.09;4990123;28;20474;-47
2022/05/14 01:34:27;;;;;;;0.95;0.50;;;;;;;22.00;44.91;101833.88;4983838;28;20482;-48
2022/05/14 01:36:55;;;;;;;0.98;0.60;;;;;;;21.93;45.70;101831.38;4992749;28;20042;-48
2022/05/14 01:39:22;;;;;;;0.77;0.40;;;;;;;22.03;44.94;101827.88;4987520;28;20031;-49
2022/05/14 01:41:48;;;;;;;1.92;0.30;;;;;;;21.75;46.05;101821.63;4982059;28;20033;-47
2022/05/14 01:44:14;;;;;;;0.80;0.25;;;;;;;21.84;45.85;101814.63;4992371;28;20038;-49
2022/05/14 01:46:41;;;;;;;0.45;0.13;;;;;;;21.76;45.65;101817.81;4993410;28;20026;-51
2022/05/14 01:49:07;;;;;;;1.17;0.40;;;;;;;21.81;46.18;101815.13;4992711;28;20053;-49
2022/05/14 01:51:34;;;;;;;0.70;0.45;;;;;;;21.78;45.89;101821.13;4989208;28;20091;-51
2022/05/14 01:54:00;;;;;;;1.58;0.25;;;;;;;21.81;45.79;101812.41;4993304;28;20022;-50
2022/05/14 01:56:26;;;;;;;0.85;0.28;;;;;;;21.74;45.79;101822.72;4990460;28;20042;-51
2022/05/14 01:58:53;;;;;;;0.55;0.35;;;;;;;21.84;45.48;101817.38;4993469;28;20031;-50
2022/05/14 02:01:27;;;;;;;0.90;0.32;;;;;;;21.79;45.40;101820.03;4988350;28;20041;-51
2022/05/14 02:03:57;;;;;;;0.85;0.30;;;;;;;21.70;45.70;101824.28;4973820;28;20034;-50
2022/05/14 02:06:26;;;;;;;2.10;0.43;;;;;;;21.59;45.91;101822.53;4990329;28;20510;-51
2022/05/14 02:08:52;;;;;;;0.20;0.20;;;;;;;21.55;45.41;101827.69;4993474;28;20482;-51
2022/05/14 02:11:21;;;;;;;1.02;0.17;;;;;;;21.64;45.59;101817.16;4992082;28;20494;-50
2022/05/14 02:13:49;;;;;;;2.40;0.40;;;;;;;21.69;45.89;101824.56;4993175;28;20038;-49
2022/05/14 02:16:16;;;;;;;1.40;0.20;;;;;;;21.90;45.00;101814.69;4991722;28;20089;-50
2022/05/14 02:18:43;;;;;;;0.60;0.30;;;;;;;21.93;44.68;101816.88;4991919;28;20120;-49
2022/05/14 02:21:10;;;;;;;1.13;0.20;;;;;;;21.84;44.77;101817.38;4992083;28;20387;-50
2022/05/14 02:23:38;;;;;;;1.08;0.20;;;;;;;21.94;44.94;101813.09;4990656;28;20041;-50
2022/05/14 02:26:10;;;;;;;0.10;0.10;;;;;;;22.25;44.37;101806.84;4976673;28;20026;-50
2022/05/14 02:28:38;;;;;;;1.70;0.40;;;;;;;22.54;44.05;101815.53;4994263;28;20368;-50
2022/05/14 02:31:04;;;;;;;0.63;0.20;;;;;;;22.52;43.29;101811.41;4994424;28;20026;-50
2022/05/14 02:33:31;;;;;;;0.85;0.30;;;;;;;22.11;44.55;101811.09;4993441;28;20030;-52
2022/05/14 02:35:58;;;;;;;0.50;0.38;;;;;;;21.77;45.16;101810.50;4992102;28;20382;-52
2022/05/14 02:38:25;;;;;;;1.35;0.30;;;;;;;21.55;46.08;101814.06;4993317;28;20033;-50
2022/05/14 02:40:51;;;;;;;0.80;0.20;;;;;;;21.04;47.28;101816.16;4992348;28;20041;-49
2022/05/14 02:43:17;;;;;;;2.05;0.30;;;;;;;21.00;47.11;101819.63;4991685;28;20037;-49
2022/05/14 02:45:43;;;;;;;0.70;0.40;;;;;;;20.94;47.51;101820.63;4993489;28;20100;-51
2022/05/14 02:48:11;;;;;;;1.33;0.45;;;;;;;20.76;48.23;101827.16;4992952;28;20023;-51
2022/05/14 02:50:38;;;;;;;0.52;0.30;;;;;;;20.64;47.76;101816.38;4992761;28;20038;-50
2022/05/14 02:53:05;;;;;;;0.98;0.50;;;;;;;20.66;48.26;101824.31;4991656;28;20034;-50
2022/05/14 02:55:31;;;;;;;1.77;0.30;;;;;;;20.59;48.29;101821.75;5006788;23;20042;-50
2022/05/14 02:57:57;;;;;;;1.10;0.20;;;;;;;20.39;48.63;101826.84;5011434;28;20025;-48
2022/05/14 03:00:24;;;;;;;0.95;0.40;;;;;;;20.34;48.48;101826.78;5012501;28;20034;-50
2022/05/14 03:02:50;;;;;;;0.77;0.40;;;;;;;20.08;49.49;101823.63;5011060;28;20129;-51
2022/05/14 03:05:19;;;;;;;1.42;0.30;;;;;;;20.01;49.87;101834.66;5006137;28;20057;-49
2022/05/14 03:07:45;;;;;;;0.68;0.40;;;;;;;20.06;49.70;101835.81;5009414;28;20458;-50
2022/05/14 03:10:13;;;;;;;0.88;0.30;;;;;;;19.68;50.77;101838.13;4997361;28;20030;-48
2022/05/14 03:12:40;;;;;;;1.00;0.40;;;;;;;19.58;50.94;101837.88;4994986;28;20483;-50
2022/05/14 03:15:11;;;;;;;0.52;0.28;;;;;;;19.49;51.24;101839.34;5006443;28;20054;-50
2022/05/14 03:17:37;;;;;;;2.97;0.60;;;;;;;19.46;51.37;101840.63;4996368;28;20033;-48
2022/05/14 03:20:07;;;;;;;1.23;0.40;;;;;;;19.32;51.66;101836.56;5012158;28;20045;-48
2022/05/14 03:22:39;;;;;;;1.05;0.50;;;;;;;19.29;51.65;101850.59;5009346;28;20120;-50
2022/05/14 03:25:07;;;;;;;2.35;1.10;;;;;;;19.20;52.19;101850.13;4997248;28;20249;-46
2022/05/14 03:27:33;;;;;;;2.70;0.52;;;;;;;19.15;52.14;101847.31;5004857;28;20120;-50
2022/05/14 03:29:59;;;;;;;3.78;0.45;;;;;;;19.11;52.61;101856.19;5000388;28;20426;-47
2022/05/14 03:32:26;;;;;;;2.05;0.65;;;;;;;19.04;52.83;101859.00;5012118;28;20103;-50
2022/05/14 03:34:58;;;;;;;1.27;0.50;;;;;;;18.71;53.68;101852.31;5027695;28;20057;-50
2022/05/14 03:37:24;;;;;;;1.45;0.47;;;;;;;18.90;53.16;101858.44;5013027;28;20071;-50
2022/05/14 03:39:51;;;;;;;0.52;0.20;;;;;;;18.71;53.54;101855.03;5006496;28;20057;-48
2022/05/14 03:42:18;;;;;;;0.55;0.30;;;;;;;18.58;54.03;101859.81;5010874;28;20117;-50
2022/05/14 03:44:48;;;;;;;2.70;0.43;;;;;;;18.57;54.15;101863.59;5008888;28;20081;-49
2022/05/14 03:47:15;;;;;;;1.08;0.40;;;;;;;18.54;54.28;101864.03;5002054;28;20085;-51
2022/05/14 03:49:41;;;;;;;0.47;0.40;;;;;;;18.44;54.36;101862.75;5030810;28;20029;-50
2022/05/14 03:52:08;;;;;;;1.25;0.50;;;;;;;18.55;53.61;101857.59;5015084;28;20864;-50
2022/05/14 03:54:35;;;;;;;1.48;0.30;;;;;;;18.55;54.05;101866.53;5020465;28;20120;-50
2022/05/14 03:57:01;;;;;;;1.70;0.40;;;;;;;18.67;53.51;101872.81;5031095;28;20045;-50
2022/05/14 03:59:28;;;;;;;0.32;0.30;;;;;;;18.52;54.43;101880.56;5031537;28;20049;-49
2022/05/14 04:01:54;;;;;;;0.32;0.30;;;;;;;18.59;53.92;101883.16;5031304;28;20040;-49
2022/05/14 04:04:20;;;;;;;1.23;0.50;;;;;;;18.62;53.82;101886.22;5014470;28;20026;-50
2022/05/14 04:06:46;;;;;;;1.25;0.35;;;;;;;18.71;53.87;101900.28;5011841;28;20101;-50
2022/05/14 04:09:12;;;;;;;0.75;0.30;;;;;;;18.64;53.94;101886.00;5011752;28;20026;-49
2022/05/14 04:11:38;;;;;;;1.20;0.40;;;;;;;18.63;53.77;101884.34;5014447;28;20398;-50
2022/05/14 04:14:05;;;;;;;1.45;0.63;;;;;;;18.63;54.66;101896.00;5026604;28;20070;-49
2022/05/14 04:16:33;;;;;;;1.92;0.70;;;;;;;18.67;55.76;101894.53;5007223;28;20497;-48
2022/05/14 04:18:59;;;;;;;6.45;1.10;;;;;;;18.61;56.16;101895.44;5004606;28;20132;-51
2022/05/14 04:21:26;;;;;;;3.72;1.20;;;;;;;18.59;56.58;101896.72;5014160;28;20069;-50
2022/05/14 04:23:52;;;;;;;3.28;1.27;;;;;;;18.38;56.77;101900.81;5024102;28;20025;-50
2022/05/14 04:26:22;;;;;;;2.70;1.00;;;;;;;18.28;57.11;101905.97;5035004;28;20029;-48
2022/05/14 04:28:48;;;;;;;3.35;0.90;;;;;;;18.26;57.21;101906.19;5017658;28;20522;-47
2022/05/14 04:31:14;;;;;;;4.38;1.13;;;;;;;18.03;57.36;101904.22;5015400;28;20069;-47
2022/05/14 04:33:41;;;;;;;3.15;1.00;;;;;;;17.76;58.41;101908.31;5018816;28;20499;-48
2022/05/14 04:36:07;;;;;;;4.25;1.10;;;;;;;17.88;57.86;101914.66;5029978;28;20029;-50
2022/05/14 04:38:33;;;;;;;2.72;1.17;;;;;;;17.85;58.04;101921.34;5034882;28;20394;-50
2022/05/14 04:40:59;;;;;;;4.53;1.58;;;;;;;17.77;58.12;101921.66;5034594;28;20037;-50
2022/05/14 04:43:29;;;;;;;3.70;1.23;;;;;;;17.78;58.03;101922.50;5034666;28;20517;-50
2022/05/14 04:45:55;;;;;;;4.95;1.15;;;;;;;17.70;57.91;101910.03;5015954;28;20470;-49
2022/05/14 04:48:21;;;;;;;4.07;1.42;;;;;;;17.79;58.00;101913.31;5014864;28;20033;-49
2022/05/14 04:50:48;;;;;;;2.45;1.00;;;;;;;17.74;58.00;101913.16;5015025;28;20108;-50
2022/05/14 04:53:14;;;;;;;3.88;1.27;;;;;;;17.50;59.06;101914.88;5015096;28;20061;-49
2022/05/14 04:55:41;;;;;;;6.65;1.42;;;;;;;17.59;58.70;101914.31;5013192;28;20049;-50
2022/05/14 04:58:08;;;;;;;5.90;1.73;;;;;;;17.71;58.15;101918.97;5014551;28;20064;-51
2022/05/14 05:00:35;;;;;;;2.15;1.23;;;;;;;17.64;58.34;101916.38;5013064;28;20026;-50
2022/05/14 05:03:17;;;;;;;2.90;0.85;;;;;;;17.73;58.26;101914.22;5014350;28;20407;-49
2022/05/14 05:05:45;;;;;;;2.33;1.02;;;;;;;17.68;58.41;101909.44;5014049;28;20479;-47
2022/05/14 05:08:12;;;;;;;5.85;1.10;;;;;;;17.75;57.92;101906.69;5013407;28;20097;-49
2022/05/14 05:10:38;;;;;;;4.35;0.90;;;;;;;17.69;57.95;101908.38;5014225;28;20034;-49
2022/05/14 05:13:10;;;;;;;1.85;0.82;;;;;;;17.73;57.90;101911.50;5012350;28;20065;-50
2022/05/14 05:15:39;;;;;;;1.90;0.77;;;;;;;17.62;58.00;101916.59;5014549;28;20075;-50
2022/05/14 05:18:06;;;;;;;5.05;1.00;;;;;;;17.47;58.63;101912.59;5013070;28;20034;-47
2022/05/14 05:20:34;;;;;;;2.97;0.95;;;;;;;17.46;58.10;101903.66;5013195;28;20030;-47
2022/05/14 05:23:00;;;;;;;3.08;1.10;;;;;;;17.48;58.65;101912.38;5012022;28;20037;-50
2022/05/14 05:25:27;;;;;;;2.47;1.30;;;;;;;17.46;58.34;101905.56;5014358;28;20053;-46
2022/05/14 05:27:53;;;;;;;5.20;1.10;;;;;;;17.32;58.81;101911.13;5013078;28;20053;-48
2022/05/14 05:30:20;;;;;;;3.75;1.13;;;;;;;17.41;59.09;101917.03;5013118;28;20046;-49
2022/05/14 05:32:46;;;;;;;4.15;1.20;;;;;;;17.62;58.53;101911.19;5012455;28;20061;-47
2022/05/14 05:35:12;;;;;;;1.67;0.90;;;;;;;17.34;59.46;101919.00;5013307;28;20173;-49
2022/05/14 05:37:39;;;;;;;2.75;1.02;;;;;;;17.35;59.95;101917.94;5012735;28;20036;-50
2022/05/14 05:40:06;;;;;;;4.95;1.30;;;;;;;17.19;60.47;101930.19;5013042;28;20036;-50
2022/05/14 05:42:32;;;;;;;2.08;0.95;;;;;;;17.17;60.21;101926.06;5013352;28;20479;-50
2022/05/14 05:44:59;;;;;;;4.03;1.30;;;;;;;17.19;60.24;101918.53;5012922;28;20045;-47
2022/05/14 05:47:25;;;;;;;3.20;1.10;;;;;;;17.08;60.17;101917.38;5012931;28;20033;-47
2022/05/14 05:49:52;;;;;;;3.85;1.00;;;;;;;17.12;60.55;101922.13;5013759;28;20030;-48
2022/05/14 05:52:18;;;;;;;3.53;1.20;;;;;;;17.03;60.35;101920.75;5012282;28;20112;-48
2022/05/14 05:57:34;;;;;;;1.70;1.20;;;;;;;17.13;60.34;101931.91;5013311;28;20512;-49
2022/05/14 06:00:04;;;;;;;2.03;1.05;;;;;;;17.19;60.25;101919.34;5013672;28;20048;-50
2022/05/14 06:02:30;;;;;;;4.18;1.25;;;;;;;16.84;61.39;101935.31;5003252;28;26467;-49
2022/05/14 06:04:56;;;;;;;4.60;1.30;;;;;;;16.80;62.22;101929.50;5006227;28;20033;-46
2022/05/14 06:07:22;;;;;;;3.42;1.55;;;;;;;16.84;62.16;101928.00;5012596;28;20231;-47
2022/05/14 06:09:49;;;;;;;5.60;1.45;;;;;;;16.63;63.06;101926.47;5013463;28;20457;-48
2022/05/14 06:12:15;;;;;;;3.75;1.30;;;;;;;16.40;64.01;101922.72;5012613;28;20029;-49
2022/05/14 06:14:43;;;;;;;4.28;1.17;;;;;;;16.28;64.68;101911.78;5013013;28;20065;-46
2022/05/14 06:17:10;;;;;;;5.82;1.30;;;;;;;16.26;64.60;101919.25;5012631;28;20033;-49
2022/05/14 06:19:36;;;;;;;2.60;1.25;;;;;;;15.98;65.56;101923.13;5012620;28;20450;-48
2022/05/14 06:22:04;;;;;;;5.78;1.50;;;;;;;16.17;64.75;101912.47;5013031;28;20030;-47
2022/05/14 06:24:31;;;;;;;3.22;1.10;;;;;;;15.95;65.36;101917.38;5010649;28;20053;-46
2022/05/14 06:26:57;;;;;;;6.05;1.10;;;;;;;16.06;64.90;101922.91;5013050;28;20032;-46
2022/05/14 06:29:23;;;;;;;3.78;0.90;;;;;;;16.17;64.02;101915.16;5012168;28;20467;-49
2022/05/14 06:31:49;;;;;;;3.17;0.98;;;;;;;16.12;64.28;101918.50;5013126;28;20112;-49
2022/05/14 06:34:16;;;;;;;3.70;1.00;;;;;;;16.09;64.31;101910.81;5011720;28;20084;-50
2022/05/14 06:36:42;;;;;;;3.00;0.90;;;;;;;15.96;64.73;101919.00;5012644;28;20088;-47
2022/05/14 06:39:08;;;;;;;2.50;1.08;;;;;;;16.09;64.45;101919.75;5011747;28;20036;-47
2022/05/14 06:41:35;;;;;;;4.78;1.27;;;;;;;16.10;64.30;101918.75;5012929;28;20026;-45
2022/05/14 06:44:01;;;;;;;4.57;1.10;;;;;;;15.98;64.62;101909.63;5011275;28;20453;-48
2022/05/14 06:46:27;;;;;;;3.92;1.58;;;;;;;15.92;65.05;101910.50;5012806;28;20026;-47
2022/05/14 06:48:53;;;;;;;3.47;1.50;;;;;;;15.66;66.51;101897.16;5011579;28;20048;-49
2022/05/14 06:51:24;;;;;;;4.65;1.25;;;;;;;15.83;65.84;101904.53;5012322;28;20037;-48
2022/05/14 06:53:53;;;;;;;3.67;1.10;;;;;;;15.58;66.27;101882.81;5011463;28;20191;-50
2022/05/14 06:56:21;;;;;;;2.60;1.13;;;;;;;15.77;65.96;101901.88;5011517;28;20082;-48
2022/05/14 06:58:50;;;;;;;2.90;1.13;;;;;;;15.42;66.90;101902.16;5012445;28;20038;-47
2022/05/14 07:01:18;;;;;;;5.65;1.20;;;;;;;15.59;66.26;101892.53;5011488;28;20429;-49
2022/05/14 07:06:37;;;;;;;3.97;1.10;;;;;;;15.61;66.13;101905.03;5007778;28;20132;-49
2022/05/14 07:09:15;;;;;;;3.97;1.20;;;;;;;15.64;66.28;101904.63;5026311;28;20080;-50
2022/05/14 07:11:44;;;;;;;2.28;1.13;;;;;;;15.53;66.13;101901.50;5029479;28;20094;-46
2022/05/14 07:14:12;;;;;;;4.25;1.13;;;;;;;15.33;66.43;101914.25;5012227;28;20028;-50
2022/05/14 07:16:40;;;;;;;5.43;1.52;;;;;;;15.48;66.22;101903.19;5012520;28;20437;-49
2022/05/14 07:19:06;;;;;;;7.55;1.38;;;;;;;15.33;66.47;101908.84;5011750;28;20029;-50
2022/05/14 07:21:37;;;;;;;6.00;1.50;;;;;;;15.01;67.61;101911.38;5012238;28;20057;-49
2022/05/14 07:24:07;;;;;;;4.90;1.05;;;;;;;15.20;66.64;101909.69;5015818;28;20029;-49
2022/05/14 07:26:35;;;;;;;2.65;1.60;;;;;;;15.21;66.67;101907.81;5031984;28;20157;-46
2022/05/14 07:29:12;;;;;;;4.50;1.30;;;;;;;15.27;66.39;101910.53;5031736;28;20018;-49
2022/05/14 07:31:39;;;;;;;6.10;1.38;;;;;;;15.33;66.21;101908.84;5031897;28;20034;-49
2022/05/14 07:34:07;;;;;;;6.68;1.63;;;;;;;15.21;66.61;101905.13;5027701;28;20045;-50
2022/05/14 07:36:57;;;;;;;4.38;1.45;;;;;;;15.32;66.46;101904.47;5012116;28;20041;-49
2022/05/14 07:39:26;;;;;;;4.95;1.45;;;;;;;15.45;65.85;101901.75;5013387;28;20130;-46
2022/05/14 07:41:56;;;;;;;6.95;1.40;;;;;;;15.29;66.17;101902.19;5008674;28;20103;-47
2022/05/14 07:44:28;;;;;;;5.18;2.30;;;;;;;15.04;67.00;101908.25;5010527;28;20038;-49
2022/05/14 07:46:55;;;;;;;4.65;1.45;;;;;;;14.99;66.97;101900.00;5010878;28;20121;-50
2022/05/14 07:49:24;;;;;;;6.00;1.75;;;;;;;15.30;66.15;101901.16;5010718;28;20097;-49
2022/05/14 07:51:53;;;;;;;3.70;1.40;;;;;;;15.19;66.23;101909.91;5011086;28;20037;-47
2022/05/14 07:54:20;;;;;;;4.10;1.35;;;;;;;15.22;65.92;101912.19;5010474;28;20021;-48
2022/05/14 07:56:46;;;;;;;4.70;1.42;;;;;;;15.12;66.08;101912.63;5014198;28;20500;-49
2022/05/14 07:59:13;;;;;;;5.97;1.75;;;;;;;14.93;67.10;101908.88;5014795;28;20510;-50
2022/05/14 08:01:43;;;;;;;4.68;1.50;;;;;;;15.07;66.41;101914.28;5015717;28;20030;-50
2022/05/14 08:04:09;;;;;;;5.38;1.90;;;;;;;15.05;66.27;101912.63;5015407;28;20061;-49
2022/05/14 08:06:36;;;;;;;4.80;1.48;;;;;;;14.99;66.42;101916.16;5013530;28;20377;-49
2022/05/14 08:09:03;;;;;;;3.92;1.40;;;;;;;15.00;66.40;101914.28;5014082;28;20072;-50
2022/05/14 08:11:30;;;;;;;5.75;1.50;;;;;;;15.05;66.54;101917.19;5015550;28;20022;-48
2022/05/14 08:13:58;;;;;;;2.65;1.45;;;;;;;14.95;66.73;101909.53;5013740;28;20026;-49
2022/05/14 08:16:25;;;;;;;4.60;1.50;;;;;;;14.86;66.94;101913.47;5015587;28;20033;-49
2022/05/14 08:18:52;;;;;;;4.07;1.80;;;;;;;14.77;67.28;101918.25;4999303;28;20038;-50
2022/05/14 08:26:51;;;;;;;8.00;1.98;;;;;;;14.81;68.03;101905.16;5014633;28;20169;-50
2022/05/14 08:29:19;;;;;;;3.97;1.40;;;;;;;14.75;67.95;101906.81;5015394;28;20026;-46
2022/05/14 08:31:45;;;;;;;5.47;1.75;;;;;;;14.81;67.90;101897.09;5028862;28;20453;-47
2022/05/14 08:34:11;;;;;;;4.28;1.67;;;;;;;14.58;69.12;101902.88;5034730;28;20030;-49
2022/05/14 08:36:38;;;;;;;2.72;1.48;;;;;;;14.40;69.66;101898.09;5034712;28;20021;-46
2022/05/14 08:39:04;;;;;;;4.65;1.98;;;;;;;14.75;68.87;101897.91;5022764;28;20026;-45
2022/05/14 08:41:36;;;;;;;2.75;1.33;;;;;;;14.72;68.21;101891.09;5012410;28;20033;-49
2022/05/14 08:44:10;;;;;;;7.97;1.88;;;;;;;14.50;68.90;101877.00;5014477;28;20026;-47
2022/05/14 08:46:40;;;;;;;2.03;1.10;;;;;;;14.60;69.13;101881.94;5014707;28;20101;-48
2022/05/14 08:49:17;;;;;;;4.00;1.50;;;;;;;14.22;70.25;101887.09;5012359;28;20034;-47
2022/05/14 08:51:50;;;;;;;3.42;1.80;;;;;;;14.49;69.65;101879.88;4994926;28;20027;-46
2022/05/14 08:54:18;;;;;;;4.05;1.40;;;;;;;14.36;69.27;101883.34;4995365;28;20026;-46
2022/05/14 08:56:46;;;;;;;5.20;1.77;;;;;;;14.50;69.16;101879.69;4994827;28;20042;-50
2022/05/14 08:59:40;;;;;;;7.30;1.77;;;;;;;14.52;69.48;101869.53;4999816;28;20223;-46
2022/05/14 09:02:17;;;;;;;5.07;1.50;;;;;;;14.27;69.90;101863.06;5014193;28;20026;-49
2022/05/14 09:04:45;;;;;;;3.00;1.80;;;;;;;14.37;70.05;101860.78;5014598;28;20076;-46
2022/05/14 09:07:12;;;;;;;6.80;1.67;;;;;;;14.21;70.44;101861.16;5014051;28;20025;-46
2022/05/14 09:09:56;;;;;;;5.07;1.80;;;;;;;14.44;70.21;101861.63;5014718;28;20097;-47
2022/05/14 09:12:28;;;;;;;2.78;1.35;;;;;;;14.24;69.51;101855.38;5014232;28;20422;-48
2022/05/14 09:14:59;;;;;;;3.15;1.33;;;;;;;14.36;68.87;101859.13;5014384;28;20024;-47
2022/05/14 09:17:29;;;;;;;2.00;1.00;;;;;;;13.94;68.62;101858.44;5014215;28;20022;-46
2022/05/14 09:19:57;;;;;;;3.08;1.02;;;;;;;13.27;70.52;101853.84;5014854;28;20471;-47
2022/05/14 09:22:23;;;;;;;1.75;1.00;;;;;;;13.93;68.54;101850.56;5012073;28;20137;-47
2022/05/14 09:25:21;;;;;;;4.68;1.33;;;;;;;13.93;68.73;101847.84;5011506;28;20030;-46
2022/05/14 09:27:47;;;;;;;2.30;0.90;;;;;;;13.96;68.59;101842.91;4993663;28;20080;-50
2022/05/14 09:30:42;;;;;;;2.47;1.02;;;;;;;13.88;67.98;101842.25;5007347;28;20533;-47
2022/05/14 09:33:24;;;;;;;6.30;1.30;;;;;;;14.02;68.05;101851.22;4994323;28;20141;-49
2022/05/14 09:36:00;;;;;;;1.95;1.00;;;;;;;13.85;68.70;101846.19;4995135;28;20027;-46
2022/05/14 09:38:28;;;;;;;8.20;1.58;;;;;;;13.91;68.36;101847.25;4994277;28;20034;-46
2022/05/14 09:41:07;;;;;;;3.22;1.20;;;;;;;13.86;68.27;101847.84;4999383;28;20068;-49
2022/05/14 09:43:37;;;;;;;3.95;1.30;;;;;;;13.47;69.88;101851.22;5014019;28;20048;-47
2022/05/14 09:46:06;;;;;;;3.30;0.90;;;;;;;13.58;69.41;101856.03;5000451;28;20038;-50
2022/05/14 09:48:46;;;;;;;1.92;1.00;;;;;;;13.53;68.84;101846.91;4994826;28;20406;-49
2022/05/14 09:51:12;;;;;;;3.80;1.20;;;;;;;13.84;67.94;101832.94;4993664;28;20092;-50
2022/05/14 09:53:43;;;;;;;1.55;0.90;;;;;;;13.51;69.24;101844.44;4996408;28;20037;-48
2022/05/14 09:56:24;;;;;;;2.95;1.00;;;;;;;13.17;70.52;101848.78;4993799;28;20057;-49
2022/05/14 09:59:14;;;;;;;2.90;1.00;;;;;;;12.85;71.69;101849.41;4997461;28;20045;-46
2022/05/14 10:01:46;;;;;;;1.25;0.90;;;;;;;13.17;70.50;101839.91;4994092;28;20105;-47
2022/05/14 10:04:23;;;;;;;2.80;1.65;;;;;;;13.37;69.97;101842.69;4998249;28;20117;-49
2022/05/14 10:06:58;;;;;;;3.65;1.80;;;;;;;13.31;70.52;101846.19;4993835;28;20033;-47
2022/05/14 10:09:52;;;;;;;2.60;1.38;;;;;;;13.41;69.87;101847.47;4994331;28;20069;-46
2022/05/14 10:12:40;;;;;;;2.72;1.40;;;;;;;13.37;69.86;101843.53;4995626;28;20489;-46
2022/05/14 10:15:43;;;;;;;2.88;1.70;;;;;;;13.39;69.98;101843.34;5010816;28;20029;-45
2022/05/14 10:18:21;;;;;;;4.50;1.30;;;;;;;13.26;69.64;101841.41;4999488;28;20490;-49
2022/05/14 10:20:57;;;;;;;1.98;1.00;;;;;;;13.38;69.02;101830.91;4993550;28;20027;-49
2022/05/14 10:26:50;;;;;;;3.97;1.67;;;;;;;13.09;70.11;101832.81;4993827;28;20041;-46
2022/05/14 10:29:34;;;;;;;3.70;1.30;;;;;;;13.22;69.39;101834.78;5012531;28;20473;-46
2022/05/14 10:32:12;;;;;;;2.35;1.02;;;;;;;13.14;69.13;101838.41;5011635;28;20069;-50
2022/05/14 10:34:45;;;;;;;2.47;1.20;;;;;;;13.22;69.04;101836.66;5011430;28;20564;-49
2022/05/14 10:37:25;;;;;;;2.08;1.10;;;;;;;13.31;68.50;101832.75;5007630;28;20073;-46
2022/05/14 10:40:01;;;;;;;2.67;1.10;;;;;;;13.33;68.61;101826.16;5011603;28;20054;-49
2022/05/14 10:42:49;;;;;;;4.30;1.83;;;;;;;13.34;68.33;101819.75;5003645;28;20030;-49
2022/05/14 10:45:23;;;;;;;4.32;1.35;;;;;;;13.22;68.63;101824.03;5001646;28;20583;-49
2022/05/14 10:48:07;;;;;;;1.95;1.00;;;;;;;13.13;68.86;101830.56;4993292;28;20038;-49
2022/05/14 10:50:34;;;;;;;2.43;1.17;;;;;;;13.23;68.30;101825.69;4994346;28;20076;-47
2022/05/14 10:53:06;;;;;;;2.13;1.20;;;;;;;13.16;68.33;101831.00;4992816;28;20030;-46
2022/05/14 10:55:52;;;;;;;2.53;1.20;;;;;;;12.83;70.23;101828.13;5000742;28;20096;-49
2022/05/14 10:58:42;;;;;;;5.35;1.83;;;;;;;12.68;70.51;101827.38;5012591;28;20030;-49
2022/05/14 11:01:27;;;;;;;18.50;6.93;;;;;;;12.72;70.32;101825.16;5012463;28;20029;-49
2022/05/14 11:04:29;;;;;;;32.75;12.52;;;;;;;12.75;70.16;101828.25;5010203;28;20037;-49
2022/05/14 11:06:58;;;;;;;18.65;8.15;;;;;;;12.88;69.60;101817.63;4993196;28;20036;-46
2022/05/14 11:09:44;;;;;;;16.42;7.22;;;;;;;12.87;69.36;101815.94;4992797;28;20080;-46
2022/05/14 11:12:20;;;;;;;11.57;5.60;;;;;;;12.95;69.47;101818.47;4994116;28;20038;-45
2022/05/14 11:14:47;;;;;;;;;;;;;;;12.81;70.34;101808.66;4992304;28;20045;-48
2022/05/14 11:17:23;;;;;;;8.82;4.35;;;;;;;12.87;70.26;101815.94;4992435;28;19921;-46
2022/05/14 11:19:53;;;;;;;7.53;3.60;;;;;;;12.78;70.27;101806.38;4991688;28;20034;-47
2022/05/14 11:22:27;;;;;;;4.65;2.67;;;;;;;12.93;69.41;101809.75;4995118;28;20548;-49
2022/05/14 11:24:54;;;;;;;4.65;2.28;;;;;;;12.89;69.18;101819.28;5008004;28;20398;-46
2022/05/14 11:27:31;;;;;;;5.18;2.10;;;;;;;12.85;69.22;101818.00;5010580;28;20038;-48
2022/05/14 11:30:06;;;;;;;4.45;1.40;;;;;;;12.83;69.25;101820.06;5012023;28;20034;-49
2022/05/14 11:32:52;;;;;;;3.47;1.63;;;;;;;12.84;69.12;101821.72;5011571;28;20034;-46
2022/05/14 11:35:19;;;;;;;2.95;1.80;;;;;;;12.75;70.01;101817.50;5010942;28;20030;-49
2022/05/14 11:37:49;;;;;;;5.43;1.80;;;;;;;12.37;71.77;101819.69;4992976;28;20039;-49
2022/05/14 11:40:35;;;;;;;6.13;1.50;;;;;;;12.58;70.79;101816.16;4993495;28;20427;-49
2022/05/14 11:43:27;;;;;;;2.08;1.30;;;;;;;12.63;69.91;101816.41;5009972;28;20128;-49
2022/05/14 11:46:21;;;;;;;2.58;1.00;;;;;;;12.29;71.92;101818.00;5002144;28;20042;-49
2022/05/14 11:49:18;;;;;;;3.55;1.55;;;;;;;12.41;71.32;101813.75;5002710;28;20034;-49
2022/05/14 11:51:56;;;;;;;2.35;1.20;;;;;;;12.54;70.45;101817.56;5006788;28;20190;-50
2022/05/14 11:54:34;;;;;;;2.08;1.40;;;;;;;12.54;70.00;101817.56;5011876;28;20041;-49
2022/05/14 11:57:08;;;;;;;3.53;1.15;;;;;;;12.53;69.74;101815.91;5011792;28;20111;-47
2022/05/14 11:59:55;;;;;;;4.28;1.85;;;;;;;12.20;71.85;101815.63;5012365;28;20387;-48